sensor_id;sensor_type;location;lat;lon;timestamp;P1;durP1;ratioP1;P2;durP2;ratioP2
42704;SDS011;28342;42.594;23.414;2022-12-11T00:01:53;21.58;;;10.57;;
42704;SDS011;28342;42.594;23.414;2022-12-11T00:04:19;24.58;;;12.45;;
42704;SDS011;28342;42.594;23.414;2022-12-11T00:06:44;21.55;;;11.18;;
42704;SDS011;28342;42.594;23.414;2022-12-11T00:09:10;23.48;;;11.30;;
42704;SDS011;28342;42.594;23.414;2022-12-11T00:11:35;23.23;;;11.90;;
42704;SDS011;28342;42.594;23.414;2022-12-11T00:14:01;21.45;;;9.65;;
42704;SDS011;28342;42.594;23.414;2022-12-11T00:16:27;24.08;;;10.23;;
42704;SDS011;28342;42.594;23.414;2022-12-11T00:18:53;16.75;;;8.85;;
42704;SDS011;28342;42.594;23.414;2022-12-11T00:21:19;16.20;;;8.38;;
42704;SDS011;28342;42.594;23.414;2022-12-11T00:23:44;20.95;;;9.80;;
42704;SDS011;28342;42.594;23.414;2022-12-11T00:26:13;19.60;;;9.80;;
42704;SDS011;28342;42.594;23.414;2022-12-11T00:28:39;17.25;;;10.38;;
42704;SDS011;28342;42.594;23.414;2022-12-11T00:31:07;20.95;;;11.15;;
42704;SDS011;28342;42.594;23.414;2022-12-11T00:33:35;19.55;;;11.13;;
42704;SDS011;28342;42.594;23.414;2022-12-11T00:36:01;21.55;;;11.07;;
42704;SDS011;28342;42.594;23.414;2022-12-11T00:38:26;18.20;;;10.65;;
42704;SDS011;28342;42.594;23.414;2022-12-11T00:40:56;17.52;;;10.52;;
42704;SDS011;28342;42.594;23.414;2022-12-11T00:43:23;20.63;;;9.82;;
42704;SDS011;28342;42.594;23.414;2022-12-11T00:45:48;21.95;;;10.70;;
42704;SDS011;28342;42.594;23.414;2022-12-11T00:48:14;22.58;;;11.80;;
42704;SDS011;28342;42.594;23.414;2022-12-11T00:50:39;19.35;;;11.30;;
42704;SDS011;28342;42.594;23.414;2022-12-11T00:53:05;21.02;;;11.60;;
42704;SDS011;28342;42.594;23.414;2022-12-11T00:55:32;24.42;;;13.02;;
42704;SDS011;28342;42.594;23.414;2022-12-11T00:58:01;22.20;;;12.20;;
42704;SDS011;28342;42.594;23.414;2022-12-11T01:00:27;17.25;;;11.50;;
42704;SDS011;28342;42.594;23.414;2022-12-11T01:02:52;22.95;;;13.05;;
42704;SDS011;28342;42.594;23.414;2022-12-11T01:05:17;24.80;;;13.90;;
42704;SDS011;28342;42.594;23.414;2022-12-11T01:07:43;19.02;;;11.52;;
42704;SDS011;28342;42.594;23.414;2022-12-11T01:10:11;21.05;;;11.35;;
42704;SDS011;28342;42.594;23.414;2022-12-11T01:13:00;17.00;;;10.15;;
42704;SDS011;28342;42.594;23.414;2022-12-11T01:15:34;20.02;;;11.30;;
42704;SDS011;28342;42.594;23.414;2022-12-11T01:18:03;27.75;;;12.93;;
42704;SDS011;28342;42.594;23.414;2022-12-11T01:20:29;26.13;;;12.07;;
42704;SDS011;28342;42.594;23.414;2022-12-11T01:22:56;26.35;;;12.38;;
42704;SDS011;28342;42.594;23.414;2022-12-11T01:25:22;20.60;;;12.25;;
42704;SDS011;28342;42.594;23.414;2022-12-11T01:27:51;23.80;;;13.48;;
42704;SDS011;28342;42.594;23.414;2022-12-11T01:30:19;33.95;;;16.77;;
42704;SDS011;28342;42.594;23.414;2022-12-11T01:32:46;25.95;;;16.08;;
42704;SDS011;28342;42.594;23.414;2022-12-11T01:35:11;34.72;;;16.50;;
42704;SDS011;28342;42.594;23.414;2022-12-11T01:37:37;24.35;;;14.00;;
42704;SDS011;28342;42.594;23.414;2022-12-11T01:40:03;21.70;;;12.50;;
42704;SDS011;28342;42.594;23.414;2022-12-11T01:42:30;26.20;;;13.38;;
42704;SDS011;28342;42.594;23.414;2022-12-11T01:47:39;25.88;;;15.23;;
42704;SDS011;28342;42.594;23.414;2022-12-11T01:50:05;28.02;;;13.73;;
42704;SDS011;28342;42.594;23.414;2022-12-11T01:52:30;29.88;;;15.55;;
42704;SDS011;28342;42.594;23.414;2022-12-11T01:54:56;29.67;;;15.70;;
42704;SDS011;28342;42.594;23.414;2022-12-11T01:57:22;20.83;;;12.60;;
42704;SDS011;28342;42.594;23.414;2022-12-11T01:59:47;6.40;;;3.80;;
42704;SDS011;28342;42.594;23.414;2022-12-11T02:02:17;5.68;;;1.75;;
42704;SDS011;28342;42.594;23.414;2022-12-11T02:04:54;11.57;;;1.20;;
42704;SDS011;28342;42.594;23.414;2022-12-11T02:07:19;2.85;;;1.02;;
42704;SDS011;28342;42.594;23.414;2022-12-11T02:09:45;0.38;;;0.38;;
42704;SDS011;28342;42.594;23.414;2022-12-11T02:26:17;1.17;;;0.68;;
42704;SDS011;28342;42.594;23.414;2022-12-11T02:28:54;2.95;;;0.40;;
42704;SDS011;28342;42.594;23.414;2022-12-11T02:34:22;1.33;;;0.68;;
42704;SDS011;28342;42.594;23.414;2022-12-11T02:36:55;1.75;;;0.70;;
42704;SDS011;28342;42.594;23.414;2022-12-11T02:39:26;1.67;;;0.95;;
42704;SDS011;28342;42.594;23.414;2022-12-11T02:41:52;4.32;;;0.90;;
42704;SDS011;28342;42.594;23.414;2022-12-11T02:44:21;2.75;;;1.08;;
42704;SDS011;28342;42.594;23.414;2022-12-11T02:46:49;3.60;;;1.55;;
42704;SDS011;28342;42.594;23.414;2022-12-11T02:49:16;3.08;;;0.80;;
42704;SDS011;28342;42.594;23.414;2022-12-11T02:51:44;0.93;;;0.50;;
42704;SDS011;28342;42.594;23.414;2022-12-11T02:54:11;0.98;;;0.68;;
42704;SDS011;28342;42.594;23.414;2022-12-11T02:56:45;2.25;;;0.70;;
42704;SDS011;28342;42.594;23.414;2022-12-11T02:59:33;1.50;;;0.77;;
42704;SDS011;28342;42.594;23.414;2022-12-11T03:02:01;3.40;;;1.00;;
42704;SDS011;28342;42.594;23.414;2022-12-11T03:04:27;3.63;;;0.77;;
42704;SDS011;28342;42.594;23.414;2022-12-11T03:06:54;1.33;;;0.70;;
42704;SDS011;28342;42.594;23.414;2022-12-11T03:09:26;0.85;;;0.70;;
42704;SDS011;28342;42.594;23.414;2022-12-11T03:11:51;5.32;;;1.10;;
42704;SDS011;28342;42.594;23.414;2022-12-11T03:14:17;1.65;;;1.10;;
42704;SDS011;28342;42.594;23.414;2022-12-11T03:16:52;2.95;;;1.40;;
42704;SDS011;28342;42.594;23.414;2022-12-11T03:24:44;3.83;;;1.90;;
42704;SDS011;28342;42.594;23.414;2022-12-11T03:27:15;3.42;;;2.10;;
42704;SDS011;28342;42.594;23.414;2022-12-11T03:29:56;4.00;;;1.80;;
42704;SDS011;28342;42.594;23.414;2022-12-11T03:32:27;4.53;;;2.28;;
42704;SDS011;28342;42.594;23.414;2022-12-11T03:37:41;4.88;;;2.47;;
42704;SDS011;28342;42.594;23.414;2022-12-11T03:40:15;6.53;;;2.13;;
42704;SDS011;28342;42.594;23.414;2022-12-11T03:45:11;1.52;;;1.30;;
42704;SDS011;28342;42.594;23.414;2022-12-11T03:47:38;1.90;;;1.30;;
42704;SDS011;28342;42.594;23.414;2022-12-11T03:50:07;4.57;;;1.20;;
42704;SDS011;28342;42.594;23.414;2022-12-11T03:52:36;2.50;;;1.00;;
42704;SDS011;28342;42.594;23.414;2022-12-11T03:55:04;1.63;;;0.95;;
42704;SDS011;28342;42.594;23.414;2022-12-11T03:57:32;3.13;;;1.10;;
42704;SDS011;28342;42.594;23.414;2022-12-11T04:00:01;1.70;;;1.10;;
42704;SDS011;28342;42.594;23.414;2022-12-11T04:02:29;3.58;;;1.30;;
42704;SDS011;28342;42.594;23.414;2022-12-11T04:04:54;2.70;;;1.00;;
42704;SDS011;28342;42.594;23.414;2022-12-11T04:07:20;3.15;;;0.90;;
42704;SDS011;28342;42.594;23.414;2022-12-11T04:09:45;3.13;;;1.60;;
42704;SDS011;28342;42.594;23.414;2022-12-11T04:12:11;1.42;;;1.05;;
42704;SDS011;28342;42.594;23.414;2022-12-11T04:14:36;9.38;;;1.95;;
42704;SDS011;28342;42.594;23.414;2022-12-11T04:17:20;4.95;;;1.25;;
42704;SDS011;28342;42.594;23.414;2022-12-11T04:20:04;5.78;;;1.67;;
42704;SDS011;28342;42.594;23.414;2022-12-11T04:22:49;1.33;;;0.82;;
42704;SDS011;28342;42.594;23.414;2022-12-11T04:25:33;3.88;;;1.00;;
42704;SDS011;28342;42.594;23.414;2022-12-11T04:27:58;2.75;;;0.93;;
42704;SDS011;28342;42.594;23.414;2022-12-11T04:30:24;1.23;;;0.88;;
42704;SDS011;28342;42.594;23.414;2022-12-11T04:32:50;1.98;;;0.88;;
42704;SDS011;28342;42.594;23.414;2022-12-11T04:35:17;5.68;;;1.00;;
42704;SDS011;28342;42.594;23.414;2022-12-11T04:37:43;1.85;;;1.00;;
42704;SDS011;28342;42.594;23.414;2022-12-11T04:40:10;0.82;;;0.73;;
42704;SDS011;28342;42.594;23.414;2022-12-11T04:42:38;2.67;;;1.00;;
42704;SDS011;28342;42.594;23.414;2022-12-11T04:45:03;5.72;;;1.65;;
42704;SDS011;28342;42.594;23.414;2022-12-11T04:47:30;1.60;;;1.13;;
42704;SDS011;28342;42.594;23.414;2022-12-11T04:49:55;3.40;;;1.10;;
42704;SDS011;28342;42.594;23.414;2022-12-11T04:52:20;2.65;;;0.88;;
42704;SDS011;28342;42.594;23.414;2022-12-11T04:54:46;1.52;;;0.73;;
42704;SDS011;28342;42.594;23.414;2022-12-11T04:57:12;1.20;;;0.60;;
42704;SDS011;28342;42.594;23.414;2022-12-11T04:59:37;2.65;;;1.20;;
42704;SDS011;28342;42.594;23.414;2022-12-11T05:02:03;2.97;;;1.30;;
42704;SDS011;28342;42.594;23.414;2022-12-11T05:04:32;3.30;;;0.93;;
42704;SDS011;28342;42.594;23.414;2022-12-11T05:06:59;1.60;;;0.80;;
42704;SDS011;28342;42.594;23.414;2022-12-11T05:09:24;3.35;;;0.95;;
42704;SDS011;28342;42.594;23.414;2022-12-11T05:11:51;2.47;;;0.70;;
42704;SDS011;28342;42.594;23.414;2022-12-11T05:14:16;3.80;;;0.68;;
42704;SDS011;28342;42.594;23.414;2022-12-11T05:16:42;4.15;;;0.85;;
42704;SDS011;28342;42.594;23.414;2022-12-11T05:19:08;1.55;;;0.85;;
42704;SDS011;28342;42.594;23.414;2022-12-11T05:21:33;2.70;;;0.90;;
42704;SDS011;28342;42.594;23.414;2022-12-11T05:23:58;2.97;;;0.77;;
42704;SDS011;28342;42.594;23.414;2022-12-11T05:26:24;3.72;;;1.10;;
42704;SDS011;28342;42.594;23.414;2022-12-11T05:28:50;1.85;;;0.68;;
42704;SDS011;28342;42.594;23.414;2022-12-11T05:31:19;2.25;;;0.82;;
42704;SDS011;28342;42.594;23.414;2022-12-11T05:33:46;4.05;;;0.88;;
42704;SDS011;28342;42.594;23.414;2022-12-11T05:36:14;3.72;;;0.98;;
42704;SDS011;28342;42.594;23.414;2022-12-11T05:38:42;2.90;;;0.90;;
42704;SDS011;28342;42.594;23.414;2022-12-11T05:41:07;5.55;;;1.63;;
42704;SDS011;28342;42.594;23.414;2022-12-11T05:43:34;2.03;;;1.02;;
42704;SDS011;28342;42.594;23.414;2022-12-11T05:46:19;3.55;;;1.27;;
42704;SDS011;28342;42.594;23.414;2022-12-11T05:48:50;2.13;;;0.80;;
42704;SDS011;28342;42.594;23.414;2022-12-11T05:51:18;1.73;;;0.70;;
42704;SDS011;28342;42.594;23.414;2022-12-11T05:53:44;1.65;;;0.80;;
42704;SDS011;28342;42.594;23.414;2022-12-11T05:56:20;6.82;;;1.15;;
42704;SDS011;28342;42.594;23.414;2022-12-11T05:58:47;1.33;;;0.80;;
42704;SDS011;28342;42.594;23.414;2022-12-11T06:01:18;5.10;;;1.23;;
42704;SDS011;28342;42.594;23.414;2022-12-11T06:03:52;4.30;;;1.25;;
42704;SDS011;28342;42.594;23.414;2022-12-11T06:06:18;5.82;;;1.60;;
42704;SDS011;28342;42.594;23.414;2022-12-11T06:08:44;4.15;;;0.85;;
42704;SDS011;28342;42.594;23.414;2022-12-11T06:11:10;5.40;;;0.98;;
42704;SDS011;28342;42.594;23.414;2022-12-11T06:13:37;2.03;;;1.13;;
42704;SDS011;28342;42.594;23.414;2022-12-11T06:16:03;3.90;;;0.88;;
42704;SDS011;28342;42.594;23.414;2022-12-11T06:18:30;2.53;;;1.20;;
42704;SDS011;28342;42.594;23.414;2022-12-11T06:20:56;10.48;;;4.15;;
42704;SDS011;28342;42.594;23.414;2022-12-11T06:23:21;8.88;;;3.88;;
42704;SDS011;28342;42.594;23.414;2022-12-11T06:25:47;2.35;;;1.20;;
42704;SDS011;28342;42.594;23.414;2022-12-11T06:28:13;2.05;;;1.10;;
42704;SDS011;28342;42.594;23.414;2022-12-11T06:30:38;2.20;;;1.33;;
42704;SDS011;28342;42.594;23.414;2022-12-11T06:33:04;3.65;;;1.77;;
42704;SDS011;28342;42.594;23.414;2022-12-11T06:35:32;7.97;;;2.53;;
42704;SDS011;28342;42.594;23.414;2022-12-11T06:37:58;4.78;;;2.35;;
42704;SDS011;28342;42.594;23.414;2022-12-11T06:40:23;11.02;;;3.97;;
42704;SDS011;28342;42.594;23.414;2022-12-11T06:42:48;5.95;;;2.40;;
42704;SDS011;28342;42.594;23.414;2022-12-11T06:45:14;9.05;;;4.30;;
42704;SDS011;28342;42.594;23.414;2022-12-11T06:47:39;9.32;;;3.72;;
42704;SDS011;28342;42.594;23.414;2022-12-11T06:50:05;15.80;;;6.78;;
42704;SDS011;28342;42.594;23.414;2022-12-11T06:52:30;18.83;;;7.90;;
42704;SDS011;28342;42.594;23.414;2022-12-11T06:54:56;8.77;;;4.35;;
42704;SDS011;28342;42.594;23.414;2022-12-11T06:57:21;11.80;;;5.50;;
42704;SDS011;28342;42.594;23.414;2022-12-11T06:59:47;11.68;;;4.50;;
42704;SDS011;28342;42.594;23.414;2022-12-11T07:02:13;10.13;;;4.53;;
42704;SDS011;28342;42.594;23.414;2022-12-11T07:04:45;11.48;;;9.10;;
42704;SDS011;28342;42.594;23.414;2022-12-11T07:07:12;4.80;;;2.03;;
42704;SDS011;28342;42.594;23.414;2022-12-11T07:09:38;1.73;;;0.95;;
42704;SDS011;28342;42.594;23.414;2022-12-11T07:12:05;3.92;;;1.27;;
42704;SDS011;28342;42.594;23.414;2022-12-11T07:14:31;3.25;;;1.35;;
42704;SDS011;28342;42.594;23.414;2022-12-11T07:16:56;4.57;;;1.30;;
42704;SDS011;28342;42.594;23.414;2022-12-11T07:19:22;4.53;;;1.17;;
42704;SDS011;28342;42.594;23.414;2022-12-11T07:21:48;7.85;;;1.10;;
42704;SDS011;28342;42.594;23.414;2022-12-11T07:24:14;5.13;;;1.00;;
42704;SDS011;28342;42.594;23.414;2022-12-11T07:26:39;2.90;;;1.17;;
42704;SDS011;28342;42.594;23.414;2022-12-11T07:29:05;3.80;;;1.40;;
42704;SDS011;28342;42.594;23.414;2022-12-11T07:31:30;1.55;;;1.02;;
42704;SDS011;28342;42.594;23.414;2022-12-11T07:34:00;4.57;;;1.08;;
42704;SDS011;28342;42.594;23.414;2022-12-11T07:36:29;8.38;;;1.67;;
42704;SDS011;28342;42.594;23.414;2022-12-11T07:38:56;8.45;;;3.25;;
42704;SDS011;28342;42.594;23.414;2022-12-11T07:41:22;5.85;;;3.15;;
42704;SDS011;28342;42.594;23.414;2022-12-11T07:43:48;53.30;;;7.38;;
42704;SDS011;28342;42.594;23.414;2022-12-11T07:46:15;7.22;;;4.20;;
42704;SDS011;28342;42.594;23.414;2022-12-11T07:48:42;14.38;;;5.32;;
42704;SDS011;28342;42.594;23.414;2022-12-11T07:51:16;3.80;;;1.45;;
42704;SDS011;28342;42.594;23.414;2022-12-11T07:53:43;5.15;;;1.58;;
42704;SDS011;28342;42.594;23.414;2022-12-11T07:56:09;4.93;;;2.03;;
42704;SDS011;28342;42.594;23.414;2022-12-11T07:58:35;7.18;;;1.92;;
42704;SDS011;28342;42.594;23.414;2022-12-11T08:01:02;5.53;;;1.50;;
42704;SDS011;28342;42.594;23.414;2022-12-11T08:03:29;5.88;;;2.20;;
42704;SDS011;28342;42.594;23.414;2022-12-11T08:05:54;7.75;;;2.80;;
42704;SDS011;28342;42.594;23.414;2022-12-11T08:08:19;7.55;;;1.90;;
42704;SDS011;28342;42.594;23.414;2022-12-11T08:10:45;6.65;;;2.58;;
42704;SDS011;28342;42.594;23.414;2022-12-11T08:13:10;5.40;;;2.03;;
42704;SDS011;28342;42.594;23.414;2022-12-11T08:15:36;3.17;;;1.70;;
42704;SDS011;28342;42.594;23.414;2022-12-11T08:18:02;29.95;;;13.18;;
42704;SDS011;28342;42.594;23.414;2022-12-11T08:20:28;8.43;;;3.00;;
42704;SDS011;28342;42.594;23.414;2022-12-11T08:22:54;7.90;;;2.30;;
42704;SDS011;28342;42.594;23.414;2022-12-11T08:25:20;5.60;;;1.95;;
42704;SDS011;28342;42.594;23.414;2022-12-11T08:27:45;2.95;;;1.13;;
42704;SDS011;28342;42.594;23.414;2022-12-11T08:30:11;3.17;;;1.02;;
42704;SDS011;28342;42.594;23.414;2022-12-11T08:32:36;8.65;;;1.23;;
42704;SDS011;28342;42.594;23.414;2022-12-11T08:35:02;4.78;;;2.30;;
42704;SDS011;28342;42.594;23.414;2022-12-11T08:37:28;5.93;;;2.67;;
42704;SDS011;28342;42.594;23.414;2022-12-11T08:39:53;2.72;;;1.20;;
42704;SDS011;28342;42.594;23.414;2022-12-11T08:42:19;4.18;;;1.40;;
42704;SDS011;28342;42.594;23.414;2022-12-11T08:44:45;5.13;;;1.38;;
42704;SDS011;28342;42.594;23.414;2022-12-11T08:47:17;2.25;;;1.27;;
42704;SDS011;28342;42.594;23.414;2022-12-11T08:49:43;3.47;;;1.58;;
42704;SDS011;28342;42.594;23.414;2022-12-11T08:52:08;2.38;;;1.05;;
42704;SDS011;28342;42.594;23.414;2022-12-11T08:54:35;3.30;;;1.17;;
42704;SDS011;28342;42.594;23.414;2022-12-11T08:57:02;3.70;;;1.10;;
42704;SDS011;28342;42.594;23.414;2022-12-11T08:59:27;3.80;;;1.00;;
42704;SDS011;28342;42.594;23.414;2022-12-11T09:01:53;3.30;;;1.30;;
42704;SDS011;28342;42.594;23.414;2022-12-11T09:04:19;3.20;;;1.60;;
42704;SDS011;28342;42.594;23.414;2022-12-11T09:06:45;2.50;;;1.00;;
42704;SDS011;28342;42.594;23.414;2022-12-11T09:09:10;8.38;;;2.25;;
42704;SDS011;28342;42.594;23.414;2022-12-11T09:11:36;4.38;;;1.50;;
42704;SDS011;28342;42.594;23.414;2022-12-11T09:14:02;6.53;;;1.65;;
42704;SDS011;28342;42.594;23.414;2022-12-11T09:16:28;5.25;;;1.35;;
42704;SDS011;28342;42.594;23.414;2022-12-11T09:18:56;5.25;;;1.15;;
42704;SDS011;28342;42.594;23.414;2022-12-11T09:21:24;4.10;;;1.63;;
42704;SDS011;28342;42.594;23.414;2022-12-11T09:23:51;8.07;;;4.57;;
42704;SDS011;28342;42.594;23.414;2022-12-11T09:26:18;3.58;;;1.10;;
42704;SDS011;28342;42.594;23.414;2022-12-11T09:28:44;3.80;;;1.50;;
42704;SDS011;28342;42.594;23.414;2022-12-11T09:31:10;2.90;;;1.13;;
42704;SDS011;28342;42.594;23.414;2022-12-11T09:33:37;5.05;;;1.60;;
42704;SDS011;28342;42.594;23.414;2022-12-11T09:36:04;2.42;;;1.30;;
42704;SDS011;28342;42.594;23.414;2022-12-11T09:38:30;4.53;;;2.15;;
42704;SDS011;28342;42.594;23.414;2022-12-11T09:40:56;2.22;;;1.92;;
42704;SDS011;28342;42.594;23.414;2022-12-11T09:46:04;5.00;;;1.90;;
42704;SDS011;28342;42.594;23.414;2022-12-11T09:48:33;4.30;;;1.38;;
42704;SDS011;28342;42.594;23.414;2022-12-11T09:51:00;6.50;;;1.20;;
42704;SDS011;28342;42.594;23.414;2022-12-11T09:53:35;5.50;;;1.60;;
42704;SDS011;28342;42.594;23.414;2022-12-11T10:02:15;1.10;;;1.00;;
42704;SDS011;28342;42.594;23.414;2022-12-11T10:15:23;3.08;;;1.40;;
42704;SDS011;28342;42.594;23.414;2022-12-11T10:17:50;4.78;;;1.35;;
42704;SDS011;28342;42.594;23.414;2022-12-11T10:20:22;3.70;;;1.35;;
42704;SDS011;28342;42.594;23.414;2022-12-11T10:22:52;3.53;;;1.03;;
42704;SDS011;28342;42.594;23.414;2022-12-11T10:25:27;2.40;;;1.35;;
42704;SDS011;28342;42.594;23.414;2022-12-11T10:27:55;5.72;;;1.45;;
42704;SDS011;28342;42.594;23.414;2022-12-11T10:30:25;4.55;;;1.35;;
42704;SDS011;28342;42.594;23.414;2022-12-11T10:35:44;2.45;;;1.58;;
42704;SDS011;28342;42.594;23.414;2022-12-11T10:38:28;5.65;;;2.03;;
42704;SDS011;28342;42.594;23.414;2022-12-11T10:41:03;2.22;;;1.25;;
42704;SDS011;28342;42.594;23.414;2022-12-11T10:43:35;3.13;;;1.75;;
42704;SDS011;28342;42.594;23.414;2022-12-11T10:46:22;3.35;;;2.17;;
42704;SDS011;28342;42.594;23.414;2022-12-11T10:51:33;2.47;;;1.20;;
42704;SDS011;28342;42.594;23.414;2022-12-11T10:54:07;5.13;;;1.75;;
42704;SDS011;28342;42.594;23.414;2022-12-11T10:56:55;6.75;;;3.78;;
42704;SDS011;28342;42.594;23.414;2022-12-11T11:01:58;5.47;;;2.55;;
42704;SDS011;28342;42.594;23.414;2022-12-11T11:04:45;2.55;;;2.10;;
42704;SDS011;28342;42.594;23.414;2022-12-11T11:07:14;3.67;;;1.55;;
42704;SDS011;28342;42.594;23.414;2022-12-11T11:09:44;3.00;;;1.70;;
42704;SDS011;28342;42.594;23.414;2022-12-11T11:12:26;9.23;;;1.83;;
42704;SDS011;28342;42.594;23.414;2022-12-11T11:14:59;7.35;;;2.38;;
42704;SDS011;28342;42.594;23.414;2022-12-11T11:17:48;5.10;;;2.42;;
42704;SDS011;28342;42.594;23.414;2022-12-11T11:20:17;6.07;;;2.05;;
42704;SDS011;28342;42.594;23.414;2022-12-11T11:22:54;8.55;;;2.72;;
42704;SDS011;28342;42.594;23.414;2022-12-11T11:25:22;3.47;;;2.30;;
42704;SDS011;28342;42.594;23.414;2022-12-11T11:27:51;7.70;;;2.53;;
42704;SDS011;28342;42.594;23.414;2022-12-11T11:30:26;3.90;;;1.50;;
42704;SDS011;28342;42.594;23.414;2022-12-11T11:32:58;6.57;;;2.80;;
42704;SDS011;28342;42.594;23.414;2022-12-11T11:35:36;11.40;;;1.77;;
42704;SDS011;28342;42.594;23.414;2022-12-11T11:38:12;2.22;;;1.30;;
42704;SDS011;28342;42.594;23.414;2022-12-11T11:46:07;4.85;;;1.42;;
42704;SDS011;28342;42.594;23.414;2022-12-11T11:48:44;2.85;;;1.60;;
42704;SDS011;28342;42.594;23.414;2022-12-11T11:54:02;3.60;;;1.67;;
42704;SDS011;28342;42.594;23.414;2022-12-11T11:56:53;1.50;;;1.10;;
42704;SDS011;28342;42.594;23.414;2022-12-11T11:59:29;8.63;;;4.38;;
42704;SDS011;28342;42.594;23.414;2022-12-11T12:01:59;8.15;;;3.22;;
42704;SDS011;28342;42.594;23.414;2022-12-11T12:04:29;9.55;;;4.35;;
42704;SDS011;28342;42.594;23.414;2022-12-11T12:12:14;5.93;;;3.03;;
42704;SDS011;28342;42.594;23.414;2022-12-11T12:17:49;4.75;;;2.70;;
42704;SDS011;28342;42.594;23.414;2022-12-11T12:26:32;5.18;;;2.88;;
42704;SDS011;28342;42.594;23.414;2022-12-11T12:37:32;5.95;;;2.30;;
42704;SDS011;28342;42.594;23.414;2022-12-11T12:42:36;3.40;;;1.55;;
42704;SDS011;28342;42.594;23.414;2022-12-11T12:47:38;2.72;;;1.30;;
42704;SDS011;28342;42.594;23.414;2022-12-11T12:50:16;2.70;;;1.67;;
42704;SDS011;28342;42.594;23.414;2022-12-11T12:52:44;2.72;;;1.40;;
42704;SDS011;28342;42.594;23.414;2022-12-11T12:57:41;7.18;;;2.00;;
42704;SDS011;28342;42.594;23.414;2022-12-11T13:00:24;1.90;;;1.25;;
42704;SDS011;28342;42.594;23.414;2022-12-11T13:02:51;5.05;;;2.65;;
42704;SDS011;28342;42.594;23.414;2022-12-11T13:05:28;9.65;;;4.65;;
42704;SDS011;28342;42.594;23.414;2022-12-11T13:08:01;7.28;;;4.28;;
42704;SDS011;28342;42.594;23.414;2022-12-11T13:10:33;11.10;;;4.18;;
42704;SDS011;28342;42.594;23.414;2022-12-11T13:15:54;4.70;;;3.72;;
42704;SDS011;28342;42.594;23.414;2022-12-11T13:18:35;6.25;;;4.10;;
42704;SDS011;28342;42.594;23.414;2022-12-11T13:21:02;6.15;;;4.00;;
42704;SDS011;28342;42.594;23.414;2022-12-11T13:23:49;6.93;;;5.38;;
42704;SDS011;28342;42.594;23.414;2022-12-11T13:26:25;4.38;;;3.67;;
42704;SDS011;28342;42.594;23.414;2022-12-11T13:28:52;5.90;;;4.35;;
42704;SDS011;28342;42.594;23.414;2022-12-11T13:33:50;5.30;;;3.63;;
42704;SDS011;28342;42.594;23.414;2022-12-11T13:38:45;6.35;;;4.43;;
42704;SDS011;28342;42.594;23.414;2022-12-11T13:41:32;10.60;;;7.22;;
42704;SDS011;28342;42.594;23.414;2022-12-11T13:44:00;7.35;;;4.55;;
42704;SDS011;28342;42.594;23.414;2022-12-11T13:46:27;8.45;;;4.38;;
42704;SDS011;28342;42.594;23.414;2022-12-11T13:48:58;7.38;;;2.95;;
42704;SDS011;28342;42.594;23.414;2022-12-11T13:51:28;14.85;;;8.40;;
42704;SDS011;28342;42.594;23.414;2022-12-11T13:54:03;17.42;;;7.13;;
42704;SDS011;28342;42.594;23.414;2022-12-11T13:56:29;12.55;;;6.05;;
42704;SDS011;28342;42.594;23.414;2022-12-11T13:58:55;6.07;;;3.10;;
42704;SDS011;28342;42.594;23.414;2022-12-11T14:01:21;6.90;;;3.42;;
42704;SDS011;28342;42.594;23.414;2022-12-11T14:06:32;4.43;;;2.97;;
42704;SDS011;28342;42.594;23.414;2022-12-11T14:09:00;4.30;;;2.10;;
42704;SDS011;28342;42.594;23.414;2022-12-11T14:11:39;3.28;;;2.50;;
42704;SDS011;28342;42.594;23.414;2022-12-11T14:17:13;8.00;;;4.45;;
42704;SDS011;28342;42.594;23.414;2022-12-11T14:19:48;4.30;;;2.60;;
42704;SDS011;28342;42.594;23.414;2022-12-11T14:22:21;1.92;;;1.55;;
42704;SDS011;28342;42.594;23.414;2022-12-11T14:24:49;2.10;;;1.60;;
42704;SDS011;28342;42.594;23.414;2022-12-11T14:27:19;11.63;;;5.45;;
42704;SDS011;28342;42.594;23.414;2022-12-11T14:29:45;8.82;;;3.33;;
42704;SDS011;28342;42.594;23.414;2022-12-11T14:32:18;5.22;;;2.45;;
42704;SDS011;28342;42.594;23.414;2022-12-11T14:34:51;6.97;;;3.20;;
42704;SDS011;28342;42.594;23.414;2022-12-11T14:37:18;2.22;;;1.30;;
42704;SDS011;28342;42.594;23.414;2022-12-11T14:42:35;8.25;;;3.20;;
42704;SDS011;28342;42.594;23.414;2022-12-11T14:45:06;12.82;;;5.07;;
42704;SDS011;28342;42.594;23.414;2022-12-11T14:47:59;3.13;;;1.40;;
42704;SDS011;28342;42.594;23.414;2022-12-11T14:50:41;5.82;;;2.83;;
42704;SDS011;28342;42.594;23.414;2022-12-11T14:53:16;12.10;;;5.57;;
42704;SDS011;28342;42.594;23.414;2022-12-11T14:55:46;4.63;;;1.90;;
42704;SDS011;28342;42.594;23.414;2022-12-11T14:58:16;14.02;;;7.20;;
42704;SDS011;28342;42.594;23.414;2022-12-11T15:03:46;2.67;;;1.90;;
42704;SDS011;28342;42.594;23.414;2022-12-11T15:06:27;4.95;;;1.88;;
42704;SDS011;28342;42.594;23.414;2022-12-11T15:08:54;2.58;;;1.45;;
42704;SDS011;28342;42.594;23.414;2022-12-11T15:11:20;3.72;;;1.95;;
42704;SDS011;28342;42.594;23.414;2022-12-11T15:13:54;2.78;;;1.90;;
42704;SDS011;28342;42.594;23.414;2022-12-11T15:16:22;6.47;;;3.35;;
42704;SDS011;28342;42.594;23.414;2022-12-11T15:18:49;3.15;;;2.00;;
42704;SDS011;28342;42.594;23.414;2022-12-11T15:21:16;2.78;;;1.83;;
42704;SDS011;28342;42.594;23.414;2022-12-11T15:23:48;2.40;;;1.70;;
42704;SDS011;28342;42.594;23.414;2022-12-11T15:26:16;11.48;;;5.25;;
42704;SDS011;28342;42.594;23.414;2022-12-11T15:28:43;6.78;;;3.40;;
42704;SDS011;28342;42.594;23.414;2022-12-11T15:31:27;4.85;;;2.40;;
42704;SDS011;28342;42.594;23.414;2022-12-11T15:33:57;6.15;;;1.88;;
42704;SDS011;28342;42.594;23.414;2022-12-11T15:38:54;3.33;;;1.50;;
42704;SDS011;28342;42.594;23.414;2022-12-11T15:41:19;3.60;;;2.40;;
42704;SDS011;28342;42.594;23.414;2022-12-11T15:43:45;3.97;;;1.55;;
42704;SDS011;28342;42.594;23.414;2022-12-11T15:46:11;2.92;;;1.60;;
42704;SDS011;28342;42.594;23.414;2022-12-11T15:48:37;6.47;;;2.20;;
42704;SDS011;28342;42.594;23.414;2022-12-11T15:51:03;4.30;;;2.05;;
42704;SDS011;28342;42.594;23.414;2022-12-11T15:53:28;3.20;;;1.50;;
42704;SDS011;28342;42.594;23.414;2022-12-11T15:55:54;1.95;;;1.30;;
42704;SDS011;28342;42.594;23.414;2022-12-11T15:58:21;2.47;;;1.40;;
42704;SDS011;28342;42.594;23.414;2022-12-11T16:00:48;2.75;;;1.50;;
42704;SDS011;28342;42.594;23.414;2022-12-11T16:03:15;1.65;;;1.30;;
42704;SDS011;28342;42.594;23.414;2022-12-11T16:05:43;2.28;;;1.40;;
42704;SDS011;28342;42.594;23.414;2022-12-11T16:08:11;3.03;;;2.03;;
42704;SDS011;28342;42.594;23.414;2022-12-11T16:10:39;3.58;;;2.30;;
42704;SDS011;28342;42.594;23.414;2022-12-11T16:13:06;3.63;;;2.08;;
42704;SDS011;28342;42.594;23.414;2022-12-11T16:15:31;2.80;;;1.80;;
42704;SDS011;28342;42.594;23.414;2022-12-11T16:18:39;3.05;;;2.08;;
42704;SDS011;28342;42.594;23.414;2022-12-11T16:20:47;3.17;;;2.00;;
42704;SDS011;28342;42.594;23.414;2022-12-11T16:23:14;3.28;;;2.30;;
42704;SDS011;28342;42.594;23.414;2022-12-11T16:25:41;5.60;;;3.30;;
42704;SDS011;28342;42.594;23.414;2022-12-11T16:28:09;3.60;;;2.25;;
42704;SDS011;28342;42.594;23.414;2022-12-11T16:30:36;3.90;;;2.63;;
42704;SDS011;28342;42.594;23.414;2022-12-11T16:33:03;3.72;;;2.30;;
42704;SDS011;28342;42.594;23.414;2022-12-11T16:35:29;2.95;;;2.00;;
42704;SDS011;28342;42.594;23.414;2022-12-11T16:37:55;2.85;;;1.85;;
42704;SDS011;28342;42.594;23.414;2022-12-11T16:40:21;3.92;;;2.28;;